Time;durP1;ratioP1;P1;durP2;ratioP2;P2;SDS_P1;SDS_P2;PMS_P1;PMS_P2;Temp;Humidity;BMP_temperature;BMP_pressure;BME280_temperature;BME280_humidity;BME280_pressure;Samples;Min_cycle;Max_cycle;Signal;HPM_P1;HPM_P2
2021/06/17 00:00:47;;;;;;;5.22;2.70;;;;;;;;;;5108781;28;20055;-70
2021/06/17 00:03:13;;;;;;;5.43;2.80;;;;;;;;;;5110388;28;20027;-70
2021/06/17 00:05:41;;;;;;;8.13;2.65;;;;;;;;;;5110254;28;20426;-70
2021/06/17 00:08:19;;;;;;;6.32;2.95;;;;;;;;;;5092071;28;20119;-71
2021/06/17 00:10:46;;;;;;;5.00;2.78;;;;;;;;;;5110445;28;20028;-70
2021/06/17 00:13:14;;;;;;;4.80;2.42;;;;;;;;;;5092143;28;20024;-70
2021/06/17 00:15:42;;;;;;;5.65;2.95;;;;;;;;;;5091688;28;20472;-70
2021/06/17 00:18:09;;;;;;;4.32;2.45;;;;;;;;;;5110245;28;20384;-70
2021/06/17 00:20:36;;;;;;;4.93;2.50;;;;;;;;;;5110467;28;20023;-71
2021/06/17 00:23:03;;;;;;;3.55;2.10;;;;;;;;;;5110029;28;20031;-70
2021/06/17 00:25:31;;;;;;;4.63;2.20;;;;;;;;;;5091955;28;20020;-71
2021/06/17 00:27:57;;;;;;;3.38;1.77;;;;;;;;;;5110084;28;20559;-71
2021/06/17 00:30:24;;;;;;;3.72;2.30;;;;;;;;;;5109807;28;20059;-71
2021/06/17 00:32:51;;;;;;;4.32;2.10;;;;;;;;;;5091843;28;20027;-71
2021/06/17 00:35:17;;;;;;;3.53;2.08;;;;;;;;;;5091733;28;20086;-71
2021/06/17 00:37:43;;;;;;;4.72;2.13;;;;;;;;;;5109565;28;20035;-71
2021/06/17 00:42:16;;;;;;;6.95;2.58;;;;;;;;;;5126588;27;20384;-70
2021/06/17 00:44:43;;;;;;;4.63;2.17;;;;;;;;;;5110166;28;20032;-70
2021/06/17 00:47:09;;;;;;;5.68;2.92;;;;;;;;;;5110440;28;20030;-70
2021/06/17 00:49:35;;;;;;;5.07;2.67;;;;;;;;;;5110343;28;20051;-70
2021/06/17 00:52:03;;;;;;;6.18;2.60;;;;;;;;;;5110854;28;20024;-70
2021/06/17 00:56:23;;;;;;;6.80;2.78;;;;;;;;;;5126287;27;20372;-70
2021/06/17 00:58:49;;;;;;;5.00;2.42;;;;;;;;;;5108825;28;20057;-70
2021/06/17 01:03:20;;;;;;;5.93;2.47;;;;;;;;;;5105987;27;20458;-70
2021/06/17 01:05:47;;;;;;;4.85;2.72;;;;;;;;;;5089707;28;20407;-71
2021/06/17 01:08:13;;;;;;;3.85;2.38;;;;;;;;;;5090082;28;20021;-70
2021/06/17 01:10:45;;;;;;;3.35;2.00;;;;;;;;;;5089956;28;20016;-70
2021/06/17 01:13:30;;;;;;;5.57;2.40;;;;;;;;;;5088723;28;20067;-70
2021/06/17 01:17:24;;;;;;;8.48;3.05;;;;;;;;;;5126330;27;20384;-70
2021/06/17 01:20:02;;;;;;;4.28;2.80;;;;;;;;;;5110152;28;20476;-70
2021/06/17 01:22:32;;;;;;;4.13;2.45;;;;;;;;;;5109351;28;20051;-70
2021/06/17 01:25:12;;;;;;;4.10;2.53;;;;;;;;;;5110167;28;20506;-70
2021/06/17 01:27:53;;;;;;;5.18;2.78;;;;;;;;;;5109012;28;20411;-70
2021/06/17 01:30:20;;;;;;;6.15;2.80;;;;;;;;;;5108952;28;20547;-70
2021/06/17 01:33:06;;;;;;;4.68;2.88;;;;;;;;;;5109994;28;20373;-71
2021/06/17 01:35:34;;;;;;;4.20;2.78;;;;;;;;;;5108865;28;20391;-70
2021/06/17 01:40:15;;;;;;;4.65;2.65;;;;;;;;;;5132995;27;20107;-70
2021/06/17 01:42:42;;;;;;;5.88;3.00;;;;;;;;;;5112764;28;20383;-70
2021/06/17 01:45:08;;;;;;;5.53;2.63;;;;;;;;;;5112667;28;20024;-70
2021/06/17 01:47:36;;;;;;;4.55;2.58;;;;;;;;;;5112024;28;20115;-70
2021/06/17 01:50:03;;;;;;;5.18;3.10;;;;;;;;;;5112705;28;20031;-71
2021/06/17 01:52:31;;;;;;;5.38;3.03;;;;;;;;;;5112395;28;20490;-70
2021/06/17 01:54:57;;;;;;;4.30;2.50;;;;;;;;;;5112007;28;20406;-70
2021/06/17 01:57:25;;;;;;;5.35;2.78;;;;;;;;;;5130733;28;20084;-70
2021/06/17 01:59:52;;;;;;;4.72;2.60;;;;;;;;;;5130503;28;20038;-70
2021/06/17 02:02:19;;;;;;;4.68;2.83;;;;;;;;;;5130333;28;20020;-70
2021/06/17 02:04:46;;;;;;;4.80;2.38;;;;;;;;;;5112389;28;20429;-69
2021/06/17 02:07:13;;;;;;;4.32;2.60;;;;;;;;;;5130102;28;20483;-70
2021/06/17 02:09:40;;;;;;;6.57;3.33;;;;;;;;;;5130451;28;20059;-70
2021/06/17 02:12:06;;;;;;;5.65;3.10;;;;;;;;;;5130550;28;20407;-69
2021/06/17 02:16:40;;;;;;;5.25;2.85;;;;;;;;;;5126352;27;20737;-70
2021/06/17 02:19:07;;;;;;;8.75;3.13;;;;;;;;;;5109304;28;20038;-70
2021/06/17 02:21:34;;;;;;;5.50;2.70;;;;;;;;;;5108673;28;20387;-69
2021/06/17 02:24:00;;;;;;;6.38;3.00;;;;;;;;;;5110511;28;20426;-70
2021/06/17 02:26:27;;;;;;;5.65;2.85;;;;;;;;;;5110313;28;20510;-69
2021/06/17 02:29:24;;;;;;;5.25;2.58;;;;;;;;;;5125885;27;20381;-70
2021/06/17 02:31:51;;;;;;;8.85;2.70;;;;;;;;;;5110525;28;20028;-70
2021/06/17 02:34:18;;;;;;;6.18;3.20;;;;;;;;;;5110488;28;20023;-70
2021/06/17 02:36:45;;;;;;;5.40;2.88;;;;;;;;;;5108770;28;20020;-71
2021/06/17 02:39:18;;;;;;;5.05;3.10;;;;;;;;;;5110578;28;20020;-70
2021/06/17 02:46:21;;;;;;;6.60;3.30;;;;;;;;;;5126382;27;20856;-69
2021/06/17 02:48:47;;;;;;;4.80;2.83;;;;;;;;;;5110562;28;20104;-70
2021/06/17 02:51:13;;;;;;;6.10;3.47;;;;;;;;;;5108780;28;20077;-70
2021/06/17 02:54:33;;;;;;;5.32;3.20;;;;;;;;;;5126435;27;20603;-70
2021/06/17 02:58:25;;;;;;;6.22;3.05;;;;;;;;;;5126211;27;20384;-71
2021/06/17 03:00:56;;;;;;;5.60;3.00;;;;;;;;;;5110912;28;20106;-70
2021/06/17 03:03:37;;;;;;;5.72;3.38;;;;;;;;;;5108760;28;20041;-70
2021/06/17 03:06:21;;;;;;;6.15;3.33;;;;;;;;;;5110406;28;20472;-70
2021/06/17 03:08:50;;;;;;;8.20;3.10;;;;;;;;;;5110363;28;20036;-70
2021/06/17 03:11:17;;;;;;;6.53;3.45;;;;;;;;;;5108632;28;20107;-70
2021/06/17 03:17:00;;;;;;;6.75;3.40;;;;;;;;;;5126453;27;20381;-70
2021/06/17 03:19:28;;;;;;;6.40;3.45;;;;;;;;;;5110413;28;20115;-70
2021/06/17 03:21:56;;;;;;;6.05;3.80;;;;;;;;;;5110931;28;20357;-70
2021/06/17 03:26:02;;;;;;;7.53;3.40;;;;;;;;;;5126358;27;20139;-70
2021/06/17 03:28:30;;;;;;;5.57;3.10;;;;;;;;;;5110703;28;20057;-70
2021/06/17 03:30:56;;;;;;;5.45;3.10;;;;;;;;;;5110628;28;20065;-70
2021/06/17 03:33:27;;;;;;;7.47;3.35;;;;;;;;;;5110134;28;20027;-70
2021/06/17 03:36:33;;;;;;;6.25;3.20;;;;;;;;;;5126422;27;20401;-70
2021/06/17 03:40:30;;;;;;;5.00;3.00;;;;;;;;;;5129790;27;20119;-70
2021/06/17 03:43:05;;;;;;;7.68;3.50;;;;;;;;;;5126356;27;20377;-70
2021/06/17 03:45:32;;;;;;;10.23;4.18;;;;;;;;;;5110130;28;20031;-70
2021/06/17 03:47:58;;;;;;;5.20;3.15;;;;;;;;;;5110461;28;20466;-70
2021/06/17 03:56:32;;;;;;;5.20;3.28;;;;;;;;;;5126369;27;20380;-70
2021/06/17 03:58:58;;;;;;;6.07;3.22;;;;;;;;;;5110654;28;20492;-70
2021/06/17 04:01:25;;;;;;;5.88;3.65;;;;;;;;;;5110203;28;20020;-70
2021/06/17 04:04:46;;;;;;;8.43;3.67;;;;;;;;;;5133512;27;20122;-70
2021/06/17 04:10:38;;;;;;;7.03;3.20;;;;;;;;;;5126432;27;21061;-70
2021/06/17 04:14:13;;;;;;;6.50;3.60;;;;;;;;;;5125921;27;20480;-70
2021/06/17 04:16:39;;;;;;;5.13;3.15;;;;;;;;;;5110652;28;20034;-70
2021/06/17 04:19:05;;;;;;;4.30;3.05;;;;;;;;;;5110712;28;20537;-70
2021/06/17 04:22:14;;;;;;;5.07;2.83;;;;;;;;;;5126067;27;20381;-70
2021/06/17 04:25:44;;;;;;;6.90;3.08;;;;;;;;;;5126432;27;20369;-70
2021/06/17 04:30:15;;;;;;;5.03;2.72;;;;;;;;;;5126256;27;20377;-70
2021/06/17 04:33:34;;;;;;;5.05;2.35;;;;;;;;;;5126409;27;20396;-70
2021/06/17 04:36:02;;;;;;;5.25;2.72;;;;;;;;;;5108818;28;20024;-70
2021/06/17 04:38:29;;;;;;;5.57;3.08;;;;;;;;;;5109102;28;20066;-70
2021/06/17 04:40:56;;;;;;;4.95;3.20;;;;;;;;;;5110609;28;20380;-70
2021/06/17 04:43:23;;;;;;;4.65;3.25;;;;;;;;;;5108777;28;20055;-70
2021/06/17 04:48:15;;;;;;;5.85;3.00;;;;;;;;;;5126302;27;20381;-70
2021/06/17 04:51:16;;;;;;;4.20;2.58;;;;;;;;;;5126125;27;20129;-70
2021/06/17 04:53:42;;;;;;;4.13;2.58;;;;;;;;;;5110462;28;20105;-71
2021/06/17 04:56:08;;;;;;;4.00;2.83;;;;;;;;;;5110023;28;20028;-70
2021/06/17 05:00:27;;;;;;;3.55;2.70;;;;;;;;;;5130025;27;20123;-70
2021/06/17 05:02:53;;;;;;;3.67;2.47;;;;;;;;;;5130709;28;20028;-70
2021/06/17 05:05:19;;;;;;;3.97;2.28;;;;;;;;;;5130831;28;20460;-70
2021/06/17 05:12:57;;;;;;;3.95;2.58;;;;;;;;;;5127633;28;20026;-70
2021/06/17 05:15:24;;;;;;;7.20;3.20;;;;;;;;;;5128876;27;20147;-69
2021/06/17 05:17:50;;;;;;;5.93;3.10;;;;;;;;;;5127654;28;20114;-69
2021/06/17 05:21:42;;;;;;;5.47;3.00;;;;;;;;;;5129164;27;20595;-69
2021/06/17 05:24:08;;;;;;;4.65;3.10;;;;;;;;;;5127761;27;20032;-69
2021/06/17 05:26:35;;;;;;;6.00;3.40;;;;;;;;;;5126727;28;20019;-69
2021/06/17 05:29:02;;;;;;;5.03;2.95;;;;;;;;;;5129615;27;20027;-69
2021/06/17 05:32:09;;;;;;;5.55;3.00;;;;;;;;;;5122321;27;20369;-70
2021/06/17 05:34:35;;;;;;;5.28;3.15;;;;;;;;;;5108649;28;20361;-70
2021/06/17 05:38:29;;;;;;;5.85;3.25;;;;;;;;;;5125752;27;20766;-69
2021/06/17 05:40:55;;;;;;;5.32;3.28;;;;;;;;;;5109088;28;20377;-69
2021/06/17 05:43:22;;;;;;;7.18;4.22;;;;;;;;;;5110367;28;20387;-69
2021/06/17 05:46:56;;;;;;;6.45;3.63;;;;;;;;;;5125803;27;20373;-70
2021/06/17 05:51:02;;;;;;;7.55;4.70;;;;;;;;;;5126106;27;20390;-70
2021/06/17 05:53:28;;;;;;;6.20;3.47;;;;;;;;;;5109880;28;20130;-70
2021/06/17 05:55:54;;;;;;;7.63;3.38;;;;;;;;;;5110286;28;20012;-70
2021/06/17 05:58:20;;;;;;;6.80;2.78;;;;;;;;;;5106258;28;20062;-70
2021/06/17 06:00:47;;;;;;;7.20;3.15;;;;;;;;;;5107985;28;20797;-70
2021/06/17 06:03:22;;;;;;;5.90;2.92;;;;;;;;;;5124364;27;20380;-69
2021/06/17 06:05:48;;;;;;;5.28;2.63;;;;;;;;;;5105323;28;20028;-69
2021/06/17 06:08:14;;;;;;;5.13;2.65;;;;;;;;;;5087921;28;20480;-70
2021/06/17 06:10:43;;;;;;;6.25;2.70;;;;;;;;;;5089145;28;20029;-69
2021/06/17 06:15:48;;;;;;;7.18;3.03;;;;;;;;;;5125588;27;20380;-69
2021/06/17 06:18:15;;;;;;;3.95;2.63;;;;;;;;;;5110253;28;20092;-69
2021/06/17 06:20:42;;;;;;;4.28;2.50;;;;;;;;;;5109553;28;20020;-69
2021/06/17 06:23:09;;;;;;;4.75;2.50;;;;;;;;;;5107136;28;20082;-69
2021/06/17 06:25:36;;;;;;;6.85;2.95;;;;;;;;;;5107456;28;20114;-70
2021/06/17 06:28:03;;;;;;;5.57;2.65;;;;;;;;;;5109075;28;20065;-70
2021/06/17 06:30:29;;;;;;;4.75;2.65;;;;;;;;;;5104165;28;20123;-69
2021/06/17 06:32:56;;;;;;;8.38;2.97;;;;;;;;;;5107142;28;20020;-69
2021/06/17 06:35:22;;;;;;;5.40;2.70;;;;;;;;;;5108456;28;20031;-69
2021/06/17 06:37:49;;;;;;;5.07;2.50;;;;;;;;;;5109434;28;20105;-69
2021/06/17 06:41:59;;;;;;;4.03;2.40;;;;;;;;;;5124865;27;20381;-68
2021/06/17 06:44:25;;;;;;;5.97;2.83;;;;;;;;;;5107857;28;20027;-69
2021/06/17 06:46:53;;;;;;;4.28;2.70;;;;;;;;;;5107955;28;20024;-70
2021/06/17 06:49:20;;;;;;;3.97;2.35;;;;;;;;;;5107606;28;20103;-69
2021/06/17 06:51:46;;;;;;;5.05;2.60;;;;;;;;;;5103479;28;20168;-70
2021/06/17 06:54:12;;;;;;;2.88;2.08;;;;;;;;;;5105749;28;20023;-70
2021/06/17 06:56:38;;;;;;;4.07;2.65;;;;;;;;;;5105063;28;20107;-70
2021/06/17 06:59:05;;;;;;;4.95;2.08;;;;;;;;;;5107305;28;20662;-69
2021/06/17 07:01:32;;;;;;;5.32;2.40;;;;;;;;;;5104927;28;20031;-70
2021/06/17 07:03:58;;;;;;;6.75;3.20;;;;;;;;;;5096448;28;20017;-69
2021/06/17 07:06:25;;;;;;;4.07;2.38;;;;;;;;;;5085119;28;20055;-68
2021/06/17 07:08:51;;;;;;;5.50;2.55;;;;;;;;;;5085121;28;20044;-69
2021/06/17 07:11:17;;;;;;;3.47;2.40;;;;;;;;;;5086047;28;20051;-69
2021/06/17 07:13:44;;;;;;;5.07;2.50;;;;;;;;;;5086299;28;20042;-69
2021/06/17 07:16:10;;;;;;;6.82;3.22;;;;;;;;;;5097513;28;20016;-69
2021/06/17 07:18:36;;;;;;;7.80;3.63;;;;;;;;;;5088252;28;20032;-69
2021/06/17 07:21:02;;;;;;;10.20;5.35;;;;;;;;;;5107816;28;20035;-69
2021/06/17 07:23:31;;;;;;;6.22;3.03;;;;;;;;;;5106458;28;20031;-69
2021/06/17 07:25:57;;;;;;;5.10;2.20;;;;;;;;;;5107558;28;20089;-69
2021/06/17 07:28:24;;;;;;;5.80;3.10;;;;;;;;;;5104467;28;20027;-69
2021/06/17 07:30:50;;;;;;;4.65;2.55;;;;;;;;;;5090800;28;20043;-69
2021/06/17 07:33:16;;;;;;;2.85;2.05;;;;;;;;;;5088150;28;20027;-70
2021/06/17 07:35:42;;;;;;;5.47;2.00;;;;;;;;;;5100404;28;20039;-69
2021/06/17 07:38:09;;;;;;;5.10;2.40;;;;;;;;;;5106309;28;20016;-69
2021/06/17 07:40:40;;;;;;;4.57;2.30;;;;;;;;;;5103892;28;20510;-69
2021/06/17 07:43:06;;;;;;;4.05;2.05;;;;;;;;;;5103653;28;20024;-72
2021/06/17 07:45:36;;;;;;;4.40;2.20;;;;;;;;;;5105749;28;20020;-69
2021/06/17 07:48:04;;;;;;;6.15;2.30;;;;;;;;;;5106720;28;20104;-69
2021/06/17 07:51:37;;;;;;;4.53;2.03;;;;;;;;;;5149758;27;20381;-69
2021/06/17 07:54:03;;;;;;;4.97;2.58;;;;;;;;;;5136731;27;20035;-70
2021/06/17 07:56:31;;;;;;;8.98;2.63;;;;;;;;;;5126193;27;20444;-70
2021/06/17 07:58:57;;;;;;;4.85;1.98;;;;;;;;;;5146826;27;20047;-69
2021/06/17 08:01:25;;;;;;;4.95;2.20;;;;;;;;;;5146790;27;20030;-70
2021/06/17 08:03:51;;;;;;;3.35;1.90;;;;;;;;;;5139685;27;20020;-70
2021/06/17 08:06:18;;;;;;;4.72;2.30;;;;;;;;;;5109247;28;20492;-69
2021/06/17 08:08:44;;;;;;;5.18;2.15;;;;;;;;;;5128543;27;20546;-70
2021/06/17 08:11:11;;;;;;;4.80;2.15;;;;;;;;;;5148094;27;20035;-70
2021/06/17 08:13:37;;;;;;;5.75;2.42;;;;;;;;;;5147698;27;20097;-70
2021/06/17 08:16:04;;;;;;;3.83;1.95;;;;;;;;;;5149937;27;20031;-70
2021/06/17 08:18:30;;;;;;;7.18;1.83;;;;;;;;;;5131138;27;20011;-71
2021/06/17 08:20:58;;;;;;;4.07;2.35;;;;;;;;;;5147065;27;20062;-71
2021/06/17 08:23:25;;;;;;;4.20;2.50;;;;;;;;;;5149837;27;20025;-70
2021/06/17 08:25:52;;;;;;;3.95;1.80;;;;;;;;;;5148796;27;20034;-71
2021/06/17 08:28:18;;;;;;;3.67;1.80;;;;;;;;;;5146683;27;20023;-71
2021/06/17 08:32:00;;;;;;;3.80;2.05;;;;;;;;;;5123427;27;20409;-70
2021/06/17 08:34:26;;;;;;;2.42;1.67;;;;;;;;;;5107407;28;20031;-70
2021/06/17 08:36:53;;;;;;;6.63;3.35;;;;;;;;;;5101944;28;20107;-71
2021/06/17 08:39:19;;;;;;;5.00;1.70;;;;;;;;;;5105531;28;20510;-70
2021/06/17 08:41:46;;;;;;;3.13;1.50;;;;;;;;;;5105878;28;20055;-71
2021/06/17 08:44:12;;;;;;;3.22;1.73;;;;;;;;;;5107993;28;20030;-71
2021/06/17 08:46:39;;;;;;;4.72;2.00;;;;;;;;;;5107290;28;20024;-71
2021/06/17 08:49:32;;;;;;;6.05;1.88;;;;;;;;;;5123596;27;20377;-69
2021/06/17 08:51:58;;;;;;;3.42;1.70;;;;;;;;;;5107402;28;20038;-72
2021/06/17 08:54:25;;;;;;;2.72;1.85;;;;;;;;;;5107087;28;20081;-74
2021/06/17 08:56:52;;;;;;;2.85;1.73;;;;;;;;;;5104888;28;20032;-74
2021/06/17 08:59:18;;;;;;;6.00;1.73;;;;;;;;;;5108335;28;20503;-72
2021/06/17 09:01:54;;;;;;;3.78;1.65;;;;;;;;;;5108841;28;20024;-72
2021/06/17 09:04:26;;;;;;;3.25;1.52;;;;;;;;;;5107828;28;20051;-70
2021/06/17 09:07:09;;;;;;;7.05;1.65;;;;;;;;;;5108126;28;20020;-71
2021/06/17 09:09:43;;;;;;;4.65;1.67;;;;;;;;;;5106173;28;20383;-69
2021/06/17 09:12:11;;;;;;;2.20;1.55;;;;;;;;;;5107996;28;20019;-71
2021/06/17 09:14:37;;;;;;;4.15;2.08;;;;;;;;;;5107912;28;20106;-71
2021/06/17 09:17:05;;;;;;;6.07;1.67;;;;;;;;;;5106087;28;20550;-71
2021/06/17 09:19:35;;;;;;;4.32;2.03;;;;;;;;;;5108272;28;20028;-70
2021/06/17 09:22:02;;;;;;;4.20;1.77;;;;;;;;;;5102955;28;20071;-70
2021/06/17 09:24:33;;;;;;;4.00;2.10;;;;;;;;;;5107871;28;20077;-70
2021/06/17 09:27:22;;;;;;;2.25;1.52;;;;;;;;;;5108326;28;20380;-70
2021/06/17 09:29:49;;;;;;;4.13;1.75;;;;;;;;;;5107512;28;20484;-71
2021/06/17 09:32:26;;;;;;;2.50;1.58;;;;;;;;;;5098572;28;20024;-71
2021/06/17 09:34:52;;;;;;;4.15;1.85;;;;;;;;;;5105483;28;20032;-70
2021/06/17 09:37:35;;;;;;;2.88;1.80;;;;;;;;;;5108118;28;20488;-71
2021/06/17 09:40:20;;;;;;;6.25;3.65;;;;;;;;;;5108609;28;20776;-68
2021/06/17 09:42:47;;;;;;;4.15;2.00;;;;;;;;;;5105316;28;20026;-69
2021/06/17 09:45:17;;;;;;;4.30;2.30;;;;;;;;;;5106167;28;20816;-68
2021/06/17 09:47:45;;;;;;;3.05;1.83;;;;;;;;;;5107666;28;20052;-69
2021/06/17 09:50:21;;;;;;;5.30;2.25;;;;;;;;;;5107720;28;20098;-69
2021/06/17 09:52:48;;;;;;;3.17;1.70;;;;;;;;;;5107132;28;20392;-71
2021/06/17 09:55:34;;;;;;;3.95;2.03;;;;;;;;;;5108058;28;20024;-70
2021/06/17 09:58:00;;;;;;;6.07;2.92;;;;;;;;;;5107896;28;20027;-70
2021/06/17 10:00:27;;;;;;;2.85;1.85;;;;;;;;;;5097051;28;20028;-70
2021/06/17 10:02:53;;;;;;;2.45;1.73;;;;;;;;;;5094538;28;20094;-70
2021/06/17 10:05:23;;;;;;;2.50;1.35;;;;;;;;;;5089256;28;20035;-70
2021/06/17 10:07:50;;;;;;;7.93;2.33;;;;;;;;;;5092092;28;20101;-70
2021/06/17 10:10:17;;;;;;;2.17;1.67;;;;;;;;;;5091446;28;20173;-70
2021/06/17 10:12:44;;;;;;;4.05;2.28;;;;;;;;;;5093302;28;20548;-71
2021/06/17 10:15:11;;;;;;;2.45;1.80;;;;;;;;;;5089596;28;20038;-69
2021/06/17 10:17:38;;;;;;;1.67;1.38;;;;;;;;;;5091891;28;20532;-69
2021/06/17 10:20:06;;;;;;;2.28;1.70;;;;;;;;;;5092198;28;20020;-69
2021/06/17 10:22:32;;;;;;;2.63;1.80;;;;;;;;;;5091799;28;20028;-70
2021/06/17 10:24:59;;;;;;;2.45;1.48;;;;;;;;;;5091012;28;20016;-69
2021/06/17 10:27:35;;;;;;;2.25;1.70;;;;;;;;;;5091312;28;20454;-71
2021/06/17 10:30:01;;;;;;;3.17;1.83;;;;;;;;;;5094211;28;20063;-70
2021/06/17 10:32:33;;;;;;;4.57;1.83;;;;;;;;;;5094244;28;20020;-70
2021/06/17 10:35:00;;;;;;;2.58;1.50;;;;;;;;;;5091939;28;20035;-70
2021/06/17 10:37:30;;;;;;;2.67;2.03;;;;;;;;;;5094556;28;20070;-70
2021/06/17 10:40:04;;;;;;;2.65;1.65;;;;;;;;;;5091965;28;20077;-69
2021/06/17 10:42:38;;;;;;;2.70;1.55;;;;;;;;;;5090169;28;20028;-69
2021/06/17 10:45:06;;;;;;;3.92;2.03;;;;;;;;;;5092083;28;20024;-70
2021/06/17 10:47:39;;;;;;;2.28;1.40;;;;;;;;;;5090777;28;20045;-69
2021/06/17 10:50:08;;;;;;;7.13;2.25;;;;;;;;;;5091742;28;20089;-70
2021/06/17 10:52:35;;;;;;;2.10;1.42;;;;;;;;;;5091977;28;20016;-69
2021/06/17 10:55:03;;;;;;;2.53;1.73;;;;;;;;;;5091155;28;20115;-69
2021/06/17 11:00:26;;;;;;;2.20;1.50;;;;;;;;;;5094574;28;20119;-71
2021/06/17 11:02:54;;;;;;;2.25;1.20;;;;;;;;;;5092173;28;20026;-70
2021/06/17 11:05:30;;;;;;;2.78;1.85;;;;;;;;;;5094010;28;20028;-70
2021/06/17 11:08:14;;;;;;;2.05;1.40;;;;;;;;;;5091684;28;20061;-70
2021/06/17 11:10:48;;;;;;;2.47;1.48;;;;;;;;;;5091711;28;20097;-70
2021/06/17 11:13:33;;;;;;;9.05;2.08;;;;;;;;;;5091571;28;20051;-70
2021/06/17 11:16:28;;;;;;;2.63;1.45;;;;;;;;;;5093827;28;20028;-70
2021/06/17 11:18:57;;;;;;;2.28;1.60;;;;;;;;;;5094230;28;20039;-70
2021/06/17 11:21:27;;;;;;;2.17;1.33;;;;;;;;;;5093920;28;20027;-70
2021/06/17 11:24:00;;;;;;;7.03;1.77;;;;;;;;;;5093578;28;20028;-71
2021/06/17 11:26:40;;;;;;;2.38;1.40;;;;;;;;;;5094128;28;20491;-71
2021/06/17 11:29:07;;;;;;;1.80;1.35;;;;;;;;;;5093763;28;20396;-71
2021/06/17 11:31:41;;;;;;;3.38;1.40;;;;;;;;;;5093517;28;20033;-70
2021/06/17 11:34:07;;;;;;;1.58;1.17;;;;;;;;;;5093758;28;20097;-71
2021/06/17 11:36:34;;;;;;;3.53;1.20;;;;;;;;;;5093548;28;20028;-70
2021/06/17 11:39:03;;;;;;;3.78;1.52;;;;;;;;;;5094245;28;20028;-71
2021/06/17 11:41:32;;;;;;;6.22;1.70;;;;;;;;;;5093736;28;20365;-71
2021/06/17 11:44:04;;;;;;;3.38;1.40;;;;;;;;;;5093162;28;20012;-71
2021/06/17 11:46:34;;;;;;;2.33;1.40;;;;;;;;;;5093457;28;20048;-70
2021/06/17 11:49:04;;;;;;;2.30;1.30;;;;;;;;;;5093224;28;20676;-71
2021/06/17 11:51:47;;;;;;;2.30;1.67;;;;;;;;;;5086901;28;20028;-69
2021/06/17 11:54:20;;;;;;;4.65;1.30;;;;;;;;;;5091443;28;20392;-70
2021/06/17 11:56:47;;;;;;;3.17;1.38;;;;;;;;;;5093047;28;20019;-71
2021/06/17 11:59:32;;;;;;;2.97;1.63;;;;;;;;;;5091775;28;20081;-71
2021/06/17 12:02:08;;;;;;;1.92;1.30;;;;;;;;;;5092978;28;20020;-69
2021/06/17 12:04:43;;;;;;;2.63;1.50;;;;;;;;;;5092900;28;20089;-69
2021/06/17 12:07:10;;;;;;;2.65;1.40;;;;;;;;;;5093187;28;20023;-69
2021/06/17 12:09:37;;;;;;;4.40;1.50;;;;;;;;;;5086398;28;20036;-68
2021/06/17 12:12:16;;;;;;;4.07;1.23;;;;;;;;;;5092369;28;20054;-68
2021/06/17 12:14:46;;;;;;;1.77;1.08;;;;;;;;;;5093100;28;20530;-69
2021/06/17 12:17:13;;;;;;;2.30;1.33;;;;;;;;;;5089573;28;20020;-69
2021/06/17 12:19:39;;;;;;;2.67;1.48;;;;;;;;;;5088978;28;20031;-70
2021/06/17 12:22:07;;;;;;;5.40;1.38;;;;;;;;;;5091070;28;20028;-70
2021/06/17 12:24:33;;;;;;;2.22;1.63;;;;;;;;;;5092450;28;20020;-70
2021/06/17 12:27:00;;;;;;;5.32;1.80;;;;;;;;;;5092262;28;20016;-69
2021/06/17 12:29:29;;;;;;;2.88;1.30;;;;;;;;;;5092661;28;20040;-70
2021/06/17 12:31:56;;;;;;;2.10;1.20;;;;;;;;;;5092284;28;20024;-70
2021/06/17 12:34:23;;;;;;;2.50;1.35;;;;;;;;;;5090899;28;20118;-70
2021/06/17 12:37:03;;;;;;;2.15;1.20;;;;;;;;;;5092827;28;20472;-70
2021/06/17 12:39:29;;;;;;;2.60;1.30;;;;;;;;;;5092583;28;20024;-70
2021/06/17 12:41:55;;;;;;;2.60;1.10;;;;;;;;;;5090741;28;20050;-70
2021/06/17 12:44:28;;;;;;;2.47;1.05;;;;;;;;;;5091101;28;20030;-70
2021/06/17 12:46:56;;;;;;;1.98;1.05;;;;;;;;;;5092196;28;20032;-70
2021/06/17 12:52:07;;;;;;;3.00;1.50;;;;;;;;;;5092431;28;20051;-70
2021/06/17 12:54:34;;;;;;;4.15;1.30;;;;;;;;;;5092315;28;20070;-70
2021/06/17 12:57:01;;;;;;;2.45;1.10;;;;;;;;;;5091170;28;20031;-70
2021/06/17 12:59:34;;;;;;;1.58;1.20;;;;;;;;;;5092596;28;20103;-70
2021/06/17 13:02:01;;;;;;;4.57;1.80;;;;;;;;;;5092141;28;20020;-69
2021/06/17 13:04:27;;;;;;;2.08;1.10;;;;;;;;;;5092294;28;20448;-69
2021/06/17 13:06:53;;;;;;;2.42;1.23;;;;;;;;;;5092408;28;20024;-69
2021/06/17 13:09:24;;;;;;;1.33;1.00;;;;;;;;;;5091923;28;20047;-69
2021/06/17 13:12:24;;;;;;;2.30;1.10;;;;;;;;;;5090828;28;20020;-70
2021/06/17 13:15:07;;;;;;;3.53;1.27;;;;;;;;;;5092603;28;20032;-70
2021/06/17 13:17:35;;;;;;;2.08;1.50;;;;;;;;;;5091863;28;20112;-69
2021/06/17 13:20:02;;;;;;;1.90;1.10;;;;;;;;;;5092237;28;20429;-69
2021/06/17 13:22:29;;;;;;;2.13;1.35;;;;;;;;;;5091738;28;20476;-69
2021/06/17 13:24:57;;;;;;;2.47;1.13;;;;;;;;;;5091336;28;20375;-68
2021/06/17 13:27:28;;;;;;;3.60;1.40;;;;;;;;;;5091016;28;20347;-70
2021/06/17 13:29:56;;;;;;;1.75;1.17;;;;;;;;;;5090593;28;20488;-68
2021/06/17 13:32:22;;;;;;;2.38;1.10;;;;;;;;;;5092126;28;20028;-69
2021/06/17 13:34:48;;;;;;;2.28;1.30;;;;;;;;;;5092347;28;20054;-68
2021/06/17 13:37:15;;;;;;;2.33;1.00;;;;;;;;;;5095760;28;20077;-68
2021/06/17 13:39:41;;;;;;;5.35;1.40;;;;;;;;;;5096028;28;20035;-69
2021/06/17 13:42:07;;;;;;;3.10;1.70;;;;;;;;;;5095846;28;20016;-68
2021/06/17 13:44:34;;;;;;;2.83;1.40;;;;;;;;;;5095380;28;20055;-68
2021/06/17 13:47:01;;;;;;;2.47;1.20;;;;;;;;;;5094547;28;20361;-68
2021/06/17 13:49:27;;;;;;;1.42;1.00;;;;;;;;;;5095568;28;20040;-68
2021/06/17 13:51:56;;;;;;;2.42;1.20;;;;;;;;;;5094020;28;20039;-69
2021/06/17 13:54:22;;;;;;;4.20;1.50;;;;;;;;;;5094505;28;20128;-68
2021/06/17 13:56:49;;;;;;;1.50;1.40;;;;;;;;;;5094619;28;20028;-69
2021/06/17 13:59:15;;;;;;;2.20;1.30;;;;;;;;;;5095096;28;20065;-69
2021/06/17 14:01:42;;;;;;;1.83;1.20;;;;;;;;;;5094125;28;20030;-68
2021/06/17 14:04:16;;;;;;;2.33;1.13;;;;;;;;;;5094194;28;20024;-68
2021/06/17 14:06:42;;;;;;;2.00;1.42;;;;;;;;;;5094102;28;20387;-69
2021/06/17 14:09:09;;;;;;;2.97;1.30;;;;;;;;;;5094003;28;20032;-68
2021/06/17 14:11:35;;;;;;;2.20;1.13;;;;;;;;;;5094961;28;20024;-68
2021/06/17 14:14:01;;;;;;;2.83;1.23;;;;;;;;;;5094237;28;20028;-67
2021/06/17 14:16:27;;;;;;;2.38;1.13;;;;;;;;;;5095236;28;20380;-67
2021/06/17 14:18:53;;;;;;;0.98;0.80;;;;;;;;;;5093795;28;20361;-67
2021/06/17 14:21:20;;;;;;;2.22;1.45;;;;;;;;;;5093855;28;20020;-67
2021/06/17 14:23:46;;;;;;;2.47;1.58;;;;;;;;;;5095033;28;20024;-68
2021/06/17 14:26:12;;;;;;;1.90;1.20;;;;;;;;;;5094603;28;20021;-68
2021/06/17 14:28:38;;;;;;;3.17;1.13;;;;;;;;;;5093519;28;20039;-68
2021/06/17 14:31:04;;;;;;;2.50;1.58;;;;;;;;;;5093615;28;20024;-68
2021/06/17 14:33:31;;;;;;;3.90;1.70;;;;;;;;;;5094787;28;20024;-69
2021/06/17 14:35:57;;;;;;;2.00;1.30;;;;;;;;;;5095135;28;20020;-69
2021/06/17 14:38:23;;;;;;;1.52;1.10;;;;;;;;;;5094794;28;20696;-69
2021/06/17 14:40:49;;;;;;;2.38;1.52;;;;;;;;;;5094179;28;20107;-69
2021/06/17 14:43:15;;;;;;;3.53;1.33;;;;;;;;;;5094735;28;20024;-69
2021/06/17 14:45:41;;;;;;;2.55;1.40;;;;;;;;;;5093238;28;20089;-69
2021/06/17 14:48:08;;;;;;;1.77;1.23;;;;;;;;;;5094004;28;20127;-69
2021/06/17 14:50:34;;;;;;;3.38;1.65;;;;;;;;;;5094415;28;20020;-69
2021/06/17 14:53:00;;;;;;;5.00;1.60;;;;;;;;;;5094765;28;20031;-69
2021/06/17 14:55:27;;;;;;;3.70;1.52;;;;;;;;;;5094232;28;20020;-69
2021/06/17 14:57:53;;;;;;;2.42;1.20;;;;;;;;;;5094468;28;20027;-69
2021/06/17 15:00:24;;;;;;;3.05;1.60;;;;;;;;;;5094407;28;20047;-69
2021/06/17 15:02:50;;;;;;;4.00;1.17;;;;;;;;;;5093940;28;20635;-69
2021/06/17 15:05:16;;;;;;;7.40;1.45;;;;;;;;;;5092990;28;20065;-69
2021/06/17 15:07:43;;;;;;;5.68;1.77;;;;;;;;;;5093713;28;20035;-69
2021/06/17 15:10:09;;;;;;;10.50;1.88;;;;;;;;;;5094225;28;20526;-69
2021/06/17 15:12:35;;;;;;;4.10;1.90;;;;;;;;;;5094358;28;20051;-69
2021/06/17 15:15:02;;;;;;;3.92;2.10;;;;;;;;;;5093864;28;20024;-69
2021/06/17 15:17:28;;;;;;;3.10;1.75;;;;;;;;;;5094082;28;20024;-67
2021/06/17 15:19:54;;;;;;;5.28;2.15;;;;;;;;;;5094012;28;20028;-68
2021/06/17 15:22:20;;;;;;;3.78;2.00;;;;;;;;;;5093568;28;20112;-68
2021/06/17 15:24:46;;;;;;;3.40;1.80;;;;;;;;;;5093913;28;20480;-68
2021/06/17 15:27:13;;;;;;;9.90;2.20;;;;;;;;;;5092503;28;20031;-68
2021/06/17 15:29:39;;;;;;;5.68;2.17;;;;;;;;;;5093239;28;20503;-68
2021/06/17 15:32:05;;;;;;;5.00;2.65;;;;;;;;;;5093757;28;20047;-68
2021/06/17 15:34:33;;;;;;;5.00;2.00;;;;;;;;;;5093771;28;20035;-68
2021/06/17 15:36:59;;;;;;;5.10;2.33;;;;;;;;;;5093283;28;20095;-69
2021/06/17 15:39:26;;;;;;;3.00;1.88;;;;;;;;;;5093413;28;20028;-69
2021/06/17 15:41:53;;;;;;;2.78;1.80;;;;;;;;;;5093477;28;20108;-69
2021/06/17 15:44:23;;;;;;;3.03;1.92;;;;;;;;;;5093180;28;20032;-69
2021/06/17 15:46:50;;;;;;;4.50;1.60;;;;;;;;;;5093394;28;20127;-68
2021/06/17 15:49:16;;;;;;;3.50;1.80;;;;;;;;;;5091840;28;20508;-68
2021/06/17 15:51:43;;;;;;;4.70;2.13;;;;;;;;;;5091854;28;20487;-69
2021/06/17 15:54:09;;;;;;;3.75;2.05;;;;;;;;;;5093431;28;20031;-69
2021/06/17 15:56:36;;;;;;;6.28;2.17;;;;;;;;;;5093238;28;20024;-69
2021/06/17 16:00:56;;;;;;;7.25;2.42;;;;;;;;;;5126026;27;20384;-68
2021/06/17 16:03:22;;;;;;;5.65;2.30;;;;;;;;;;5108973;28;20035;-69